Arcadia, Indiana
Current Conditions -  °F | °C
As of 8:35 PM on Sunday 23 Nov 2014 (Local Time) from KTYQ Reporting Station
Heavy Rain Heavy Rain  
Wind Chill: 53°   Ceiling: 900
Heat Index: 53°   Visibility: 4mi
Dew Point: 50°   Wind: 8mph
Humidity: 89%   Direction: 130°SE
Pressure: 29.3"   Gusts: NA
Location:  40.18°N, 86.02°W
Report Text: KTYQ 240135Z AUTO 13007KT 4SM +RA SCT005 BKN009 OVC015 12/10 A2930 RMK AO2 P0018 T01170100
Loading
Personal Weather Stations






























Interactive Weather Map New forecast layout! Learn more

10-Day Weather Forecast

Advertisements
Track Severe Weather on mobile